.
WxDataArchive / Data Records for 2013-06-06
2013-06-05 June 2013 2013-06-07

Data Records for Thursday, 06 June 2013

Time	Temp	Chill	HIndex	Humid	Dewpt	 Wind 	HiWind	WindDir	Rain 	Barom 
-----	----	-----	------	-----	-----	------	------	-------	-----	----- 
00:00	59.9	59.9	59.9	57	44.6	0	2	90	0.00	29.934 
00:05	59.8	59.8	59.8	58	45.0	1	3	90	0.00	29.934 
00:10	59.6	59.6	59.6	58	44.8	1	3	90	0.00	29.934 
00:15	59.6	59.6	59.6	59	45.3	0	4	90	0.00	29.932 
00:20	59.5	59.5	59.5	60	45.6	0	2	90	0.00	29.932 
00:25	59.5	59.5	59.5	60	45.6	1	4	90	0.00	29.932 
00:30	59.5	59.5	59.5	60	45.6	0	2	90	0.00	29.929 
00:35	59.5	59.5	59.5	60	45.6	0	2	90	0.00	29.929 
00:40	59.3	59.3	59.3	60	45.4	0	1	90	0.00	29.929 
00:45	59.3	59.3	59.3	60	45.4	1	5	90	0.00	29.922 
00:50	59.3	59.3	59.3	60	45.4	1	5	90	0.00	29.922 
00:55	59.2	59.2	59.2	61	45.8	0	1	90	0.00	29.922 
01:00	59.2	59.2	59.2	60	45.3	0	2	90	0.00	29.916 
01:05	59.2	59.2	59.2	59	44.9	1	4	90	0.00	29.916 
01:10	59.0	59.0	59.0	59	44.7	0	2	90	0.00	29.916 
01:15	59.0	59.0	59.0	60	45.1	0	2	90	0.00	29.915 
01:20	58.9	58.9	58.9	60	45.0	0	2	90	0.00	29.915 
01:25	58.9	58.9	58.9	60	45.0	1	4	90	0.00	29.915 
01:30	58.7	58.7	58.7	60	44.8	1	5	90	0.00	29.903 
01:35	58.7	58.7	58.7	60	44.8	0	1	90	0.00	29.903 
01:40	58.7	58.7	58.7	60	44.8	1	4	90	0.00	29.903 
01:45	58.6	58.6	58.6	60	44.8	0	2	90	0.00	29.901 
01:50	58.6	58.6	58.6	60	44.8	0	2	90	0.00	29.901 
01:55	58.6	58.6	58.6	61	45.2	0	2	90	0.00	29.901 
02:00	58.4	58.4	58.4	61	45.0	0	1	90	0.00	29.901 
02:05	58.4	58.4	58.4	61	45.0	1	5	90	0.00	29.901 
02:10	58.4	58.4	58.4	62	45.4	1	3	90	0.00	29.901 
02:15	58.3	58.3	58.3	62	45.3	1	5	90	0.00	29.902 
02:20	58.3	58.3	58.3	62	45.3	1	4	90	0.00	29.902 
02:25	58.3	58.3	58.3	62	45.3	0	1	90	0.00	29.902 
02:30	58.3	58.3	58.3	63	45.8	1	3	90	0.00	29.894 
02:35	58.3	58.3	58.3	63	45.8	1	4	90	0.00	29.894 
02:40	58.3	58.3	58.3	64	46.2	1	2	90	0.00	29.894 
02:45	58.3	58.3	58.3	65	46.6	0	2	90	0.00	29.888 
02:50	58.1	58.1	58.1	65	46.4	1	3	90	0.00	29.888 
02:55	58.1	58.1	58.1	65	46.4	1	6	112	0.00	29.888 
03:00	58.1	58.1	58.1	66	46.8	0	3	112	0.00	29.884 
03:05	58.0	58.0	58.0	66	46.7	0	3	112	0.00	29.884 
03:10	58.0	58.0	58.0	67	47.1	1	3	112	0.00	29.884 
03:15	57.8	57.8	57.8	68	47.3	0	3	112	0.00	29.879 
03:20	57.6	57.6	57.6	69	47.5	1	3	112	0.00	29.879 
03:25	57.6	57.6	57.6	69	47.5	0	2	112	0.00	29.879 
03:30	57.6	57.6	57.6	70	47.9	1	3	112	0.00	29.870 
03:35	57.6	57.6	57.6	71	48.3	0	2	112	0.00	29.870 
03:40	57.6	57.6	57.6	71	48.3	1	4	90	0.00	29.870 
03:45	57.6	57.6	57.6	71	48.3	0	2	112	0.00	29.867 
03:50	57.6	57.6	57.6	72	48.6	0	3	112	0.00	29.867 
03:55	57.6	57.6	57.6	73	49.0	0	1	112	0.00	29.867 
04:00	57.5	57.5	57.5	73	48.9	0	3	112	0.00	29.867 
04:05	57.5	57.5	57.5	74	49.3	0	3	112	0.00	29.867 
04:10	57.5	57.5	57.5	75	49.6	0	3	90	0.00	29.867 
04:15	57.5	57.5	57.5	75	49.6	0	1	90	0.00	29.866 
04:20	57.3	57.3	57.3	76	49.8	0	3	90	0.00	29.866 
04:25	57.3	57.3	57.3	76	49.8	1	4	90	0.00	29.866 
04:30	57.3	57.3	57.3	77	50.1	1	2	90	0.00	29.860 
04:35	57.5	57.5	57.5	77	50.3	1	4	90	0.00	29.860 
04:40	57.5	57.5	57.5	77	50.3	1	4	90	0.00	29.860 
04:45	57.5	57.5	57.5	77	50.3	0	3	90	0.00	29.855 
04:50	57.5	57.5	57.5	77	50.3	1	2	90	0.00	29.855 
04:55	57.5	57.5	57.5	77	50.3	0	2	90	0.00	29.855 
05:00	57.5	57.5	57.5	77	50.3	1	4	90	0.00	29.855 
05:05	57.5	57.5	57.5	76	50.0	0	2	90	0.00	29.855 
05:10	57.5	57.5	57.5	75	49.6	1	4	90	0.00	29.855 
05:15	57.6	57.6	57.6	74	49.4	2	6	90	0.00	29.866 
05:20	57.8	57.8	57.8	74	49.6	1	3	90	0.00	29.866 
05:25	57.8	57.8	57.8	73	49.2	0	3	90	0.00	29.866 
05:30	57.8	57.8	57.8	73	49.2	1	3	90	0.00	29.860 
05:35	57.8	57.8	57.8	72	48.8	1	4	90	0.00	29.860 
05:40	57.8	57.8	57.8	71	48.5	1	3	90	0.00	29.860 
05:45	57.8	57.8	57.8	71	48.5	1	5	112	0.00	29.855 
05:50	57.8	57.8	57.8	71	48.5	1	7	90	0.00	29.855 
05:55	57.8	57.8	57.8	71	48.5	1	5	90	0.00	29.855 
06:00	57.8	57.8	57.8	71	48.5	2	5	112	0.00	29.861 
06:05	57.8	57.8	57.8	71	48.5	1	4	90	0.00	29.861 
06:10	57.6	57.6	57.6	71	48.3	1	5	90	0.00	29.861 
06:15	57.6	57.6	57.6	70	47.9	2	4	112	0.00	29.855 
06:20	57.5	57.5	57.5	71	48.2	2	8	112	0.00	29.855 
06:25	57.5	57.5	57.5	70	47.8	1	3	68	0.00	29.855 
06:30	57.3	57.3	57.3	70	47.6	2	5	68	0.00	29.854 
06:35	57.3	57.3	57.3	70	47.6	1	7	90	0.00	29.854 
06:40	57.2	57.2	57.2	69	47.1	2	5	90	0.00	29.854 
06:45	57.2	57.2	57.2	70	47.5	1	3	90	0.00	29.855 
06:50	57.2	57.2	57.2	69	47.1	1	4	135	0.00	29.855 
06:55	57.0	57.0	57.0	70	47.3	1	4	90	0.00	29.855 
07:00	57.0	57.0	57.0	69	46.9	2	7	90	0.00	29.855 
07:05	57.0	57.0	57.0	69	46.9	1	3	90	0.00	29.855 
07:10	57.0	57.0	57.0	69	46.9	2	5	90	0.00	29.855 
07:15	57.0	57.0	57.0	69	46.9	1	4	90	0.00	29.856 
07:20	57.0	57.0	57.0	68	46.5	2	5	90	0.00	29.856 
07:25	57.0	57.0	57.0	68	46.5	2	5	112	0.00	29.856 
07:30	57.0	57.0	57.0	68	46.5	2	5	90	0.00	29.853 
07:35	57.0	57.0	57.0	68	46.5	1	4	90	0.00	29.853 
07:40	57.0	57.0	57.0	68	46.5	2	5	90	0.00	29.853 
07:45	57.2	57.2	57.2	68	46.7	2	6	112	0.00	29.847 
07:50	57.2	57.2	57.2	68	46.7	1	4	135	0.00	29.847 
07:55	57.2	57.2	57.2	69	47.1	1	3	90	0.00	29.847 
08:00	57.2	57.2	57.2	68	46.7	1	4	90	0.00	29.853 
08:05	57.2	57.2	57.2	67	46.3	1	4	112	0.00	29.853 
08:10	57.2	57.2	57.2	68	46.7	1	4	112	0.00	29.853 
08:15	57.2	57.2	57.2	67	46.3	1	7	112	0.00	29.846 
08:20	57.2	57.2	57.2	67	46.3	1	6	112	0.00	29.846 
08:25	57.2	57.2	57.2	67	46.3	1	5	112	0.00	29.846 
08:30	57.2	57.2	57.2	67	46.3	1	4	112	0.00	29.856 
08:35	57.2	57.2	57.2	66	45.9	1	4	68	0.00	29.856 
08:40	57.2	57.2	57.2	67	46.3	0	2	90	0.00	29.856 
08:45	57.2	57.2	57.2	65	45.5	1	6	90	0.00	29.859 
08:50	57.3	57.3	57.3	66	46.0	1	3	112	0.00	29.859 
08:55	57.5	57.5	57.5	66	46.2	1	4	112	0.00	29.859 
09:00	57.5	57.5	57.5	64	45.4	1	6	135	0.00	29.859 
09:05	57.6	57.6	57.6	65	45.9	0	1	135	0.00	29.859 
09:10	57.6	57.6	57.6	63	45.1	1	3	135	0.00	29.859 
09:15	57.6	57.6	57.6	64	45.5	1	3	135	0.00	29.860 
09:20	57.8	57.8	57.8	63	45.3	1	4	112	0.00	29.860 
09:25	57.8	57.8	57.8	63	45.3	1	4	90	0.00	29.860 
09:30	58.0	58.0	58.0	62	45.1	2	6	112	0.00	29.860 
09:35	58.0	58.0	58.0	62	45.1	1	5	112	0.00	29.860 
09:40	58.0	58.0	58.0	62	45.1	1	5	112	0.00	29.860 
09:45	58.0	58.0	58.0	62	45.1	1	6	90	0.00	29.847 
09:50	58.1	58.1	58.1	64	46.0	1	5	112	0.00	29.847 
09:55	58.3	58.3	58.3	62	45.3	1	9	90	0.00	29.847 
10:00	58.3	58.3	58.3	62	45.3	2	5	90	0.00	29.858 
10:05	58.6	58.6	58.6	62	45.6	1	3	68	0.00	29.858 
10:10	58.7	58.7	58.7	61	45.3	2	5	68	0.00	29.858 
10:15	58.7	58.7	58.7	62	45.7	1	5	112	0.00	29.860 
10:20	58.9	58.9	58.9	62	45.9	2	4	112	0.00	29.860 
10:25	58.9	58.9	58.9	60	45.0	3	10	68	0.00	29.860 
10:30	58.9	58.9	58.9	62	45.9	0	2	68	0.00	29.861 
10:35	59.0	59.0	59.0	59	44.7	2	5	112	0.00	29.861 
10:40	59.0	59.0	59.0	60	45.1	1	6	90	0.00	29.861 
10:45	59.2	59.2	59.2	62	46.2	0	2	90	0.00	29.864 
10:50	59.3	59.3	59.3	61	45.8	1	3	90	0.00	29.864 
10:55	59.5	59.5	59.5	61	46.0	1	3	68	0.00	29.864 
11:00	59.6	59.6	59.6	59	45.3	2	5	112	0.00	29.862 
11:05	59.8	59.8	59.8	61	46.3	1	3	112	0.00	29.862 
11:10	59.9	59.9	59.9	61	46.4	1	4	180	0.00	29.862 
11:15	60.2	60.2	60.2	62	47.1	0	2	90	0.00	29.859 
11:20	60.4	60.4	60.4	59	46.0	1	4	90	0.00	29.859 
11:25	60.2	60.2	60.2	60	46.3	2	5	112	0.00	29.859 
11:30	60.4	60.4	60.4	60	46.4	1	4	112	0.00	29.862 
11:35	60.7	60.7	60.7	60	46.7	1	3	112	0.00	29.862 
11:40	61.8	61.8	61.8	62	48.6	1	3	112	0.00	29.862 
11:45	63.2	63.2	63.2	57	47.7	1	4	112	0.00	29.854 
11:50	63.9	63.9	63.9	54	46.9	3	7	112	0.00	29.854 
11:55	64.2	64.2	64.2	58	49.1	2	5	68	0.00	29.854 
12:00	64.2	64.2	64.2	55	47.7	3	7	90	0.00	29.847 
12:05	64.3	64.3	64.3	52	46.3	4	9	90	0.00	29.847 
12:10	64.7	64.7	64.7	58	49.6	1	4	90	0.00	29.847 
12:15	65.0	65.0	65.0	56	48.9	2	5	112	0.00	29.843 
12:20	65.5	65.5	65.5	54	48.4	2	6	90	0.00	29.843 
12:25	65.8	65.8	65.8	56	49.7	1	7	112	0.00	29.843 
12:30	66.4	66.4	66.4	54	49.2	1	4	112	0.00	29.838 
12:35	66.8	66.8	66.8	54	49.6	2	6	112	0.00	29.838 
12:40	67.3	67.3	67.3	55	50.6	1	4	112	0.00	29.838 
12:45	67.6	67.6	67.6	60	53.2	2	5	90	0.00	29.835 
12:50	67.8	67.8	67.8	54	50.5	2	6	112	0.00	29.835 
12:55	67.9	67.9	67.9	51	49.1	1	3	112	0.00	29.835 
13:00	68.3	68.3	68.3	51	49.5	2	5	112	0.00	29.830 
13:05	68.4	68.4	68.4	52	50.1	2	4	90	0.00	29.830 
13:10	67.8	67.8	67.8	52	49.5	1	3	45	0.00	29.830 
13:15	67.6	67.6	67.6	54	50.4	1	4	135	0.00	29.831 
13:20	67.8	67.8	67.8	54	50.5	1	3	68	0.00	29.831 
13:25	68.3	68.3	68.3	55	51.5	2	7	112	0.00	29.831 
13:30	68.8	68.8	68.8	52	50.4	1	5	112	0.00	29.831 
13:35	69.1	69.1	69.1	54	51.7	1	4	90	0.00	29.831 
13:40	69.4	69.4	69.4	54	52.0	1	4	135	0.00	29.831 
13:45	69.3	69.3	69.3	53	51.4	1	4	315	0.00	29.831 
13:50	69.4	69.4	69.4	51	50.5	2	4	112	0.00	29.831 
13:55	69.9	69.9	69.9	52	51.5	1	3	112	0.00	29.831 
14:00	70.3	70.3	70.3	51	51.3	1	4	158	0.00	29.824 
14:05	70.1	70.1	70.1	51	51.1	1	4	112	0.00	29.824 
14:10	70.1	70.1	70.1	53	52.2	2	6	112	0.00	29.824 
14:15	70.4	70.4	70.4	53	52.4	0	2	112	0.00	29.821 
14:20	70.8	70.8	70.8	53	52.8	2	9	112	0.00	29.821 
14:25	70.9	70.9	70.9	54	53.4	2	5	112	0.00	29.821 
14:30	70.8	70.8	70.8	50	51.2	2	4	135	0.00	29.819 
14:35	70.6	70.6	70.6	50	51.0	3	9	135	0.00	29.819 
14:40	70.8	70.8	70.8	51	51.8	4	9	90	0.00	29.819 
14:45	70.9	70.9	70.9	53	52.9	3	7	90	0.00	29.811 
14:50	71.3	71.3	71.3	53	53.3	2	9	112	0.00	29.811 
14:55	71.6	71.6	71.6	50	52.0	2	5	112	0.00	29.811 
15:00	71.8	71.8	71.8	49	51.6	3	7	90	0.00	29.811 
15:05	71.6	71.6	71.6	50	52.0	2	7	90	0.00	29.811 
15:10	71.8	71.8	71.8	51	52.7	2	5	90	0.00	29.811 
15:15	72.3	72.3	72.3	52	53.7	1	5	90	0.00	29.807 
15:20	72.7	72.7	72.7	50	53.0	2	6	90	0.00	29.807 
15:25	73.0	73.0	73.0	50	53.2	0	4	90	0.00	29.807 
15:30	73.2	73.2	73.2	48	52.3	2	6	90	0.00	29.810 
15:35	73.0	73.0	73.0	51	53.8	2	5	90	0.00	29.810 
15:40	73.0	73.0	73.0	49	52.7	2	5	90	0.00	29.810 
15:45	73.0	73.0	73.0	49	52.7	1	5	90	0.00	29.810 
15:50	73.0	73.0	73.0	51	53.8	1	4	90	0.00	29.810 
15:55	73.0	73.0	73.0	53	54.8	1	4	90	0.00	29.810 
16:00	73.2	73.2	73.2	50	53.4	0	3	90	0.00	29.812 
16:05	73.3	73.3	73.3	50	53.5	1	3	90	0.00	29.812 
16:10	73.5	73.5	73.5	52	54.8	1	5	90	0.00	29.812 
16:15	73.7	73.7	73.7	48	52.8	1	4	90	0.00	29.808 
16:20	73.9	73.9	73.9	49	53.5	1	5	90	0.00	29.808 
16:25	73.7	73.7	73.7	50	53.9	2	5	90	0.00	29.808 
16:30	73.7	73.7	73.7	50	53.9	2	4	90	0.00	29.803 
16:35	73.7	73.7	73.7	52	55.0	1	3	90	0.00	29.803 
16:40	73.9	73.9	73.9	51	54.6	1	3	90	0.00	29.803 
16:45	74.0	74.0	74.0	49	53.6	1	6	90	0.00	29.799 
16:50	74.0	74.0	74.0	49	53.6	2	5	90	0.00	29.799 
16:55	74.2	74.2	74.2	50	54.3	1	3	90	0.00	29.799 
17:00	74.0	74.0	74.0	51	54.7	2	6	90	0.00	29.799 
17:05	74.2	74.2	74.2	49	53.8	1	4	90	0.00	29.799 
17:10	74.6	74.6	74.6	52	55.8	0	3	90	0.00	29.799 
17:15	74.4	74.4	74.4	48	53.4	2	6	90	0.00	29.800 
17:20	73.9	73.9	73.9	50	54.1	2	5	90	0.00	29.800 
17:25	73.7	73.7	73.7	48	52.8	2	4	90	0.00	29.800 
17:30	73.9	73.9	73.9	51	54.6	1	5	90	0.00	29.803 
17:35	73.7	73.7	73.7	49	53.3	2	7	90	0.00	29.803 
17:40	73.7	73.7	73.7	49	53.3	0	2	90	0.00	29.803 
17:45	74.0	74.0	74.0	50	54.2	1	3	90	0.00	29.805 
17:50	74.2	74.2	74.2	47	52.7	0	2	90	0.00	29.805 
17:55	74.4	74.4	74.4	50	54.5	1	3	90	0.00	29.805 
18:00	74.2	74.2	74.2	49	53.8	1	3	90	0.00	29.806 
18:05	74.0	74.0	74.0	48	53.0	1	3	90	0.00	29.806 
18:10	73.9	73.9	73.9	49	53.5	1	5	90	0.00	29.806 
18:15	73.7	73.7	73.7	49	53.3	0	1	90	0.00	29.805 
18:20	73.5	73.5	73.5	48	52.6	1	4	90	0.00	29.805 
18:25	73.3	73.3	73.3	49	53.0	1	4	90	0.00	29.805 
18:30	73.2	73.2	73.2	50	53.4	1	2	90	0.00	29.805 
18:35	73.2	73.2	73.2	49	52.9	1	3	90	0.00	29.805 
18:40	73.0	73.0	73.0	50	53.2	0	2	90	0.00	29.805 
18:45	72.8	72.8	72.8	49	52.5	0	0	---	0.00	29.801 
18:50	72.7	72.7	72.7	51	53.5	0	1	90	0.00	29.801 
18:55	72.3	72.3	72.3	50	52.6	1	4	90	0.00	29.801 
19:00	72.1	72.1	72.1	52	53.5	0	2	90	0.00	29.806 
19:05	72.1	72.1	72.1	53	54.0	0	1	90	0.00	29.806 
19:10	72.1	72.1	72.1	52	53.5	0	2	90	0.00	29.806 
19:15	72.1	72.1	72.1	50	52.4	1	3	90	0.00	29.809 
19:20	72.1	72.1	72.1	51	53.0	1	4	90	0.00	29.809 
19:25	72.0	72.0	72.0	52	53.4	1	3	90	0.00	29.809 
19:30	71.8	71.8	71.8	51	52.7	2	4	90	0.00	29.810 
19:35	71.5	71.5	71.5	52	52.9	1	4	90	0.00	29.810 
19:40	71.5	71.5	71.5	54	54.0	0	2	90	0.00	29.810 
19:45	71.3	71.3	71.3	53	53.3	1	3	90	0.00	29.809 
19:50	71.1	71.1	71.1	53	53.1	1	4	90	0.00	29.809 
19:55	71.1	71.1	71.1	53	53.1	1	3	90	0.00	29.809 
20:00	70.9	70.9	70.9	54	53.4	1	2	90	0.00	29.812 
20:05	70.8	70.8	70.8	54	53.3	1	4	90	0.00	29.812 
20:10	70.4	70.4	70.4	54	52.9	1	3	90	0.00	29.812 
20:15	70.3	70.3	70.3	54	52.9	1	2	90	0.00	29.820 
20:20	70.1	70.1	70.1	55	53.2	0	3	90	0.00	29.820 
20:25	69.9	69.9	69.9	55	53.0	1	3	90	0.00	29.820 
20:30	69.8	69.8	69.8	56	53.4	1	4	90	0.00	29.823 
20:35	69.6	69.6	69.6	56	53.2	1	3	90	0.00	29.823 
20:40	69.4	69.4	69.4	56	53.0	1	3	90	0.00	29.823 
20:45	69.3	69.3	69.3	56	52.9	1	4	90	0.00	29.824 
20:50	69.1	69.1	69.1	56	52.7	1	3	90	0.00	29.824 
20:55	69.1	69.1	69.1	57	53.2	0	2	90	0.00	29.824 
21:00	68.9	68.9	68.9	57	53.0	0	2	90	0.00	29.823 
21:05	68.8	68.8	68.8	57	52.9	0	2	90	0.00	29.823 
21:10	68.6	68.6	68.6	58	53.2	0	2	90	0.00	29.823 
21:15	68.4	68.4	68.4	58	53.0	0	2	90	0.00	29.825 
21:20	68.3	68.3	68.3	59	53.4	0	1	90	0.00	29.825 
21:25	67.9	67.9	67.9	60	53.5	0	2	90	0.00	29.825 
21:30	67.4	67.4	67.4	61	53.5	1	4	90	0.00	29.825 
21:35	67.3	67.3	67.3	62	53.8	1	4	90	0.00	29.825 
21:40	66.9	66.9	66.9	63	53.9	0	2	90	0.00	29.825 
21:45	66.6	66.6	66.6	64	54.0	0	3	90	0.00	29.827 
21:50	66.3	66.3	66.3	66	54.6	1	3	90	0.00	29.827 
21:55	66.0	66.0	66.0	67	54.7	1	3	90	0.00	29.827 
22:00	65.6	65.6	65.6	68	54.7	1	4	90	0.00	29.833 
22:05	65.5	65.5	65.5	69	55.1	1	2	90	0.00	29.833 
22:10	65.2	65.2	65.2	70	55.2	1	4	90	0.00	29.833 
22:15	65.0	65.0	65.0	72	55.7	0	1	90	0.00	29.843 
22:20	64.7	64.7	64.7	73	55.8	0	2	90	0.00	29.843 
22:25	64.3	64.3	64.3	74	55.8	1	3	90	0.00	29.843 
22:30	64.2	64.2	64.2	75	56.1	1	6	90	0.00	29.848 
22:35	64.0	64.0	64.0	75	55.9	1	4	90	0.00	29.848 
22:40	63.9	63.9	63.9	76	56.2	1	4	90	0.00	29.848 
22:45	63.7	63.7	63.7	76	56.0	1	4	90	0.00	29.852 
22:50	63.5	63.5	63.5	77	56.2	1	3	90	0.00	29.852 
22:55	63.2	63.2	63.2	77	55.9	1	3	90	0.00	29.852 
23:00	63.1	63.1	63.1	78	56.1	1	2	90	0.00	29.859 
23:05	62.7	62.7	62.7	78	55.7	0	2	90	0.00	29.859 
23:10	62.6	62.6	62.6	79	56.0	0	2	90	0.00	29.859 
23:15	62.4	62.4	62.4	80	56.1	0	2	90	0.00	29.857 
23:20	62.1	62.1	62.1	80	55.9	0	2	90	0.00	29.857 
23:25	62.0	62.0	62.0	81	56.1	0	2	90	0.00	29.857 
23:30	61.8	61.8	61.8	81	55.9	1	2	90	0.00	29.856 
23:35	61.6	61.6	61.6	81	55.7	0	2	90	0.00	29.856 
23:40	61.5	61.5	61.5	81	55.6	0	1	90	0.00	29.856 
23:45	61.5	61.5	61.5	81	55.6	0	2	90	0.00	29.856 
23:50	61.3	61.3	61.3	82	55.8	0	1	90	0.00	29.856 
23:55	61.2	61.2	61.2	82	55.7	0	1	90	0.00	29.856 

CoCoRaHS
IN-AL-39
A2 Web Hosting
Creative Commons License
GoDaddy
search engine by freefind advanced

loaded 2018-11-18 11:15:31 • last modified 2010-11-18 10:43:29
Privacy PolicyDisclaimer
• wx.awcolley.com is powered by PmWiki v.2002016 •
• all content (unless otherwise noted) © 2018 A W Colley